Hauptseite
METAR-TAF:

METAR-TAF

Flughäfen :

Gran Canaria, Spanien

Flughafen Gran Canaria

Breite: 27-56N, Länge: 015-23W, Höhe: 23 m

Beobachtung

Neuester Wetterbericht von vor 42 Minuten, um 23:30 UTC
Wind 12 kt aus Nord
Temperatur 18°C
Luftfeuchtigkeit 68%
Luftdruck 1022 hPa
Sichtweite 10 km oder mehr
Aufgelockert bewölkt in der Höhe von 4500 ft

METAR: GCLP 172330Z 35012KT 9999 SCT045 18/12 Q1022 NOSIG

Zeit: 00:12 (00:12 UTC)

Prognose

Neuester Wetterbericht von vor 4 Stunden und 12 Minuten, um 20:00 UTC
Gültige Prognose vom 17 um 21 UTC bis 18 um 21 UTC
Wind 20 kt aus Nord
Sichtweite 10 km oder mehr
Aufgelockert bewölkt in der Höhe von 3000 ft

TAF: GCLP 172000Z 1721/1821 36020KT 9999 SCT030 TX21/1814Z TN16/1806Z

Wetterbeobachtungen und Prognosen von mehr als 4000 Flughäfen (METAR und TAF Bericht).

Die verfügbaren Stationen werden durch gelbe und rote Markierungen auf der Karte dargestellt.

Führen Sie die Maus auf sie, um den Namen der Station zu sehen.

Darauf klicken, um die Beobachtung von Wetterbeobachtungen und Prognosen zu sehen.

Um die Karte zu ändern : klicken Sie auf den grünen Tasten mit einem schwarzen Kreuz Zum Vergrößern, auf den grünen Button mit einem Gedankenstrich zu verkleinern, oder auf die grünen Pfeile für benachbarte Karten.


METAR-TAF: